CYDC

Princeton Airport

Town of Princeton, British Columbia, Canada
METAR CYDC 180100Z 09004KT 070V130 15SM FEW015 OVC055 M01/M03 A2983 RMK ST1SC7 LAST STFD OBS/NEXT 181500UTC SLP129
Observed Flight Rules
Dec-18 @ 01:00 UTC (8 hours ago) Visual Flight Rules
Wind Visibility Clouds
90° at 4 knots 15 miles
  • Few at 1,500' AGL
  • Overcast at 5,500' AGL
Temperatures Readings
Current -1°C / 30°F
Dewpoint -3°C / 27°F
Humidity 86%
Altimeter 29.83" Hg
Pressure 1012.9 hPa
Elevation 700
METAR CYDC 180100Z 09004KT 070V130 15SM FEW015 OVC055 M01/M03 A2983 RMK ST1SC7 LAST STFD OBS/NEXT 181500UTC SLP129
Observed Flight Rules
Dec-18 @ 01:00 UTC
(8 hours ago)
VFR
Wind Visibility
90° at 4 knots 15 miles
Clouds
  • Few at 1,500' AGL
  • Overcast at 5,500' AGL
Temperature Dewpoint
-1°C / 30°F -3°C / 27°F
Humidity Altimeter Pressure
86% 29.83" Hg 1012.9 hPa